sensor_id;sensor_type;location;lat;lon;timestamp;pressure;altitude;pressure_sealevel;temperature;humidity
74327;BME280;62745;51.060;13.786;2023-04-06T00:00:23;100788.69;;;0.64;82.62
74327;BME280;62745;51.060;13.786;2023-04-06T00:02:48;100782.97;;;0.58;82.29
74327;BME280;62745;51.060;13.786;2023-04-06T00:05:13;100782.88;;;0.36;82.94
74327;BME280;62745;51.060;13.786;2023-04-06T00:07:38;100788.81;;;0.62;82.83
74327;BME280;62745;51.060;13.786;2023-04-06T00:10:05;100790.94;;;1.03;80.60
74327;BME280;62745;51.060;13.786;2023-04-06T00:12:30;100785.31;;;0.97;79.45
74327;BME280;62745;51.060;13.786;2023-04-06T00:14:56;100796.03;;;0.71;80.76
74327;BME280;62745;51.060;13.786;2023-04-06T00:17:21;100775.84;;;0.83;79.47
74327;BME280;62745;51.060;13.786;2023-04-06T00:19:46;100790.84;;;0.58;80.23
74327;BME280;62745;51.060;13.786;2023-04-06T00:22:11;100782.25;;;0.33;81.04
74327;BME280;62745;51.060;13.786;2023-04-06T00:24:37;100789.28;;;0.21;81.73
74327;BME280;62745;51.060;13.786;2023-04-06T00:27:02;100784.78;;;0.10;82.61
74327;BME280;62745;51.060;13.786;2023-04-06T00:29:27;100785.03;;;0.07;82.82
74327;BME280;62745;51.060;13.786;2023-04-06T00:31:52;100795.38;;;0.56;82.35
74327;BME280;62745;51.060;13.786;2023-04-06T00:34:18;100793.69;;;0.90;80.89
74327;BME280;62745;51.060;13.786;2023-04-06T00:36:43;100783.13;;;0.68;80.00
74327;BME280;62745;51.060;13.786;2023-04-06T00:39:09;100796.63;;;0.75;80.48
74327;BME280;62745;51.060;13.786;2023-04-06T00:41:35;100787.56;;;0.44;80.58
74327;BME280;62745;51.060;13.786;2023-04-06T00:44:00;100762.59;;;0.84;81.04
74327;BME280;62745;51.060;13.786;2023-04-06T00:46:25;100785.50;;;0.71;79.89
74327;BME280;62745;51.060;13.786;2023-04-06T00:48:50;100786.09;;;0.75;81.44
74327;BME280;62745;51.060;13.786;2023-04-06T00:51:16;100757.28;;;0.62;81.02
74327;BME280;62745;51.060;13.786;2023-04-06T00:53:41;100773.94;;;0.39;82.22
74327;BME280;62745;51.060;13.786;2023-04-06T00:56:06;100783.44;;;0.28;82.65
74327;BME280;62745;51.060;13.786;2023-04-06T00:58:34;100787.72;;;0.18;84.52
74327;BME280;62745;51.060;13.786;2023-04-06T01:01:03;100780.16;;;0.14;84.25
74327;BME280;62745;51.060;13.786;2023-04-06T01:03:28;100791.72;;;0.81;83.52
74327;BME280;62745;51.060;13.786;2023-04-06T01:05:53;100782.19;;;0.92;81.28
74327;BME280;62745;51.060;13.786;2023-04-06T01:08:23;100785.50;;;0.82;80.85
74327;BME280;62745;51.060;13.786;2023-04-06T01:10:48;100782.19;;;0.92;81.18
74327;BME280;62745;51.060;13.786;2023-04-06T01:13:14;100780.75;;;0.99;80.74
74327;BME280;62745;51.060;13.786;2023-04-06T01:15:39;100784.31;;;0.75;80.61
74327;BME280;62745;51.060;13.786;2023-04-06T01:18:04;100779.22;;;0.50;82.24
74327;BME280;62745;51.060;13.786;2023-04-06T01:20:31;100783.66;;;0.25;83.32
74327;BME280;62745;51.060;13.786;2023-04-06T01:22:57;100787.03;;;0.63;82.98
74327;BME280;62745;51.060;13.786;2023-04-06T01:25:22;100779.72;;;0.66;82.15
74327;BME280;62745;51.060;13.786;2023-04-06T01:27:47;100777.50;;;0.73;82.81
74327;BME280;62745;51.060;13.786;2023-04-06T01:30:12;100779.44;;;0.47;82.32
74327;BME280;62745;51.060;13.786;2023-04-06T01:32:38;100780.88;;;0.40;82.82
74327;BME280;62745;51.060;13.786;2023-04-06T01:35:03;100780.38;;;0.35;82.18
74327;BME280;62745;51.060;13.786;2023-04-06T01:37:28;100784.44;;;0.15;82.82
74327;BME280;62745;51.060;13.786;2023-04-06T01:39:57;100782.84;;;0.01;83.27
74327;BME280;62745;51.060;13.786;2023-04-06T01:42:22;100780.50;;;-0.15;84.19
74327;BME280;62745;51.060;13.786;2023-04-06T01:44:47;100769.84;;;-0.37;84.59
74327;BME280;62745;51.060;13.786;2023-04-06T01:47:12;100778.47;;;-0.48;85.55
74327;BME280;62745;51.060;13.786;2023-04-06T01:49:38;100779.97;;;-0.56;85.44
74327;BME280;62745;51.060;13.786;2023-04-06T01:52:03;100783.94;;;-0.51;86.20
74327;BME280;62745;51.060;13.786;2023-04-06T01:54:28;100776.94;;;-0.63;86.75
74327;BME280;62745;51.060;13.786;2023-04-06T01:56:53;100778.06;;;-0.54;87.30
74327;BME280;62745;51.060;13.786;2023-04-06T01:59:19;100768.97;;;-0.62;86.88
74327;BME280;62745;51.060;13.786;2023-04-06T02:01:44;100782.19;;;-0.63;87.08
74327;BME280;62745;51.060;13.786;2023-04-06T02:04:10;100780.09;;;-0.71;87.11
74327;BME280;62745;51.060;13.786;2023-04-06T02:06:35;100778.00;;;-0.78;87.35
74327;BME280;62745;51.060;13.786;2023-04-06T02:09:00;100752.72;;;-0.92;87.33
74327;BME280;62745;51.060;13.786;2023-04-06T02:11:26;100775.16;;;-0.63;87.26
74327;BME280;62745;51.060;13.786;2023-04-06T02:13:51;100769.91;;;-0.75;87.63
74327;BME280;62745;51.060;13.786;2023-04-06T02:16:16;100776.72;;;-0.85;87.28
74327;BME280;62745;51.060;13.786;2023-04-06T02:18:41;100777.16;;;-0.92;87.97
74327;BME280;62745;51.060;13.786;2023-04-06T02:21:07;100763.28;;;-0.68;88.31
74327;BME280;62745;51.060;13.786;2023-04-06T02:23:32;100771.16;;;-0.68;87.09
74327;BME280;62745;51.060;13.786;2023-04-06T02:25:57;100772.94;;;-0.69;87.74
74327;BME280;62745;51.060;13.786;2023-04-06T02:28:22;100752.28;;;-0.86;87.91
74327;BME280;62745;51.060;13.786;2023-04-06T02:30:48;100747.75;;;-0.71;87.82
74327;BME280;62745;51.060;13.786;2023-04-06T02:33:13;100761.22;;;-0.76;88.19
74327;BME280;62745;51.060;13.786;2023-04-06T02:35:38;100755.41;;;-0.68;87.86
74327;BME280;62745;51.060;13.786;2023-04-06T02:38:03;100762.16;;;-0.77;88.24
74327;BME280;62745;51.060;13.786;2023-04-06T02:40:29;100756.25;;;-0.68;88.53
74327;BME280;62745;51.060;13.786;2023-04-06T02:42:54;100753.84;;;-0.58;88.37
74327;BME280;62745;51.060;13.786;2023-04-06T02:45:19;100748.34;;;-0.42;86.31
74327;BME280;62745;51.060;13.786;2023-04-06T02:47:45;100765.06;;;-0.56;86.88
74327;BME280;62745;51.060;13.786;2023-04-06T02:50:10;100765.09;;;-0.81;87.92
74327;BME280;62745;51.060;13.786;2023-04-06T02:52:36;100761.22;;;-0.88;88.20
74327;BME280;62745;51.060;13.786;2023-04-06T02:55:01;100746.91;;;-0.59;87.85
74327;BME280;62745;51.060;13.786;2023-04-06T02:57:26;100766.22;;;-0.60;87.41
74327;BME280;62745;51.060;13.786;2023-04-06T02:59:51;100759.81;;;-0.69;87.63
74327;BME280;62745;51.060;13.786;2023-04-06T03:02:17;100766.16;;;-0.84;88.11
74327;BME280;62745;51.060;13.786;2023-04-06T03:04:42;100746.75;;;-1.07;88.77
74327;BME280;62745;51.060;13.786;2023-04-06T03:07:08;100753.78;;;-1.07;89.30
74327;BME280;62745;51.060;13.786;2023-04-06T03:09:33;100767.13;;;-0.98;89.29
74327;BME280;62745;51.060;13.786;2023-04-06T03:11:58;100769.00;;;-1.12;89.07
74327;BME280;62745;51.060;13.786;2023-04-06T03:14:23;100769.28;;;-0.79;90.28
74327;BME280;62745;51.060;13.786;2023-04-06T03:16:59;100760.38;;;-0.89;88.80
74327;BME280;62745;51.060;13.786;2023-04-06T03:19:25;100768.06;;;-0.99;89.62
74327;BME280;62745;51.060;13.786;2023-04-06T03:21:50;100764.38;;;-1.09;90.09
74327;BME280;62745;51.060;13.786;2023-04-06T03:24:15;100767.53;;;-1.16;90.51
74327;BME280;62745;51.060;13.786;2023-04-06T03:26:41;100768.56;;;-1.19;90.93
74327;BME280;62745;51.060;13.786;2023-04-06T03:29:06;100762.06;;;-1.26;91.04
74327;BME280;62745;51.060;13.786;2023-04-06T03:31:31;100766.06;;;-1.33;91.20
74327;BME280;62745;51.060;13.786;2023-04-06T03:33:57;100771.00;;;-1.16;91.12
74327;BME280;62745;51.060;13.786;2023-04-06T03:36:22;100778.84;;;-1.29;91.79
74327;BME280;62745;51.060;13.786;2023-04-06T03:38:47;100776.81;;;-1.38;91.89
74327;BME280;62745;51.060;13.786;2023-04-06T03:41:13;100772.03;;;-1.06;92.10
74327;BME280;62745;51.060;13.786;2023-04-06T03:43:38;100781.63;;;-0.55;90.09
74327;BME280;62745;51.060;13.786;2023-04-06T03:46:03;100783.63;;;-0.59;88.83
74327;BME280;62745;51.060;13.786;2023-04-06T03:48:28;100780.91;;;-0.57;88.17
74327;BME280;62745;51.060;13.786;2023-04-06T03:50:54;100790.56;;;-0.71;88.95
74327;BME280;62745;51.060;13.786;2023-04-06T03:53:19;100790.97;;;-0.51;87.55
74327;BME280;62745;51.060;13.786;2023-04-06T03:55:45;100789.97;;;-0.87;88.42
74327;BME280;62745;51.060;13.786;2023-04-06T03:58:10;100790.59;;;-1.09;89.00
74327;BME280;62745;51.060;13.786;2023-04-06T04:00:35;100793.75;;;-1.16;89.85
74327;BME280;62745;51.060;13.786;2023-04-06T04:03:01;100794.31;;;-1.38;90.70
74327;BME280;62745;51.060;13.786;2023-04-06T04:05:27;100797.13;;;-1.54;90.92
74327;BME280;62745;51.060;13.786;2023-04-06T04:07:52;100797.53;;;-1.60;91.92
74327;BME280;62745;51.060;13.786;2023-04-06T04:10:17;100797.41;;;-1.71;91.84
74327;BME280;62745;51.060;13.786;2023-04-06T04:12:43;100802.84;;;-1.74;92.26
74327;BME280;62745;51.060;13.786;2023-04-06T04:15:08;100797.97;;;-1.66;92.95
74327;BME280;62745;51.060;13.786;2023-04-06T04:17:33;100797.00;;;-1.65;92.98
74327;BME280;62745;51.060;13.786;2023-04-06T04:19:59;100804.47;;;-1.59;93.16
74327;BME280;62745;51.060;13.786;2023-04-06T04:22:24;100797.41;;;-1.32;91.98
74327;BME280;62745;51.060;13.786;2023-04-06T04:24:49;100785.81;;;-1.55;91.82
74327;BME280;62745;51.060;13.786;2023-04-06T04:27:14;100796.19;;;-1.53;92.13
74327;BME280;62745;51.060;13.786;2023-04-06T04:29:40;100783.28;;;-1.56;92.47
74327;BME280;62745;51.060;13.786;2023-04-06T04:32:05;100775.38;;;-1.29;91.65
74327;BME280;62745;51.060;13.786;2023-04-06T04:34:31;100766.78;;;-1.18;90.30
74327;BME280;62745;51.060;13.786;2023-04-06T04:36:56;100798.69;;;-1.12;90.50
74327;BME280;62745;51.060;13.786;2023-04-06T04:39:21;100783.56;;;-0.96;89.86
74327;BME280;62745;51.060;13.786;2023-04-06T04:41:47;100799.81;;;-0.78;89.43
74327;BME280;62745;51.060;13.786;2023-04-06T04:44:12;100802.97;;;-0.85;90.04
74327;BME280;62745;51.060;13.786;2023-04-06T04:46:37;100799.72;;;-0.89;89.49
74327;BME280;62745;51.060;13.786;2023-04-06T04:49:02;100799.19;;;-1.07;90.41
74327;BME280;62745;51.060;13.786;2023-04-06T04:51:28;100794.78;;;-0.81;89.97
74327;BME280;62745;51.060;13.786;2023-04-06T04:53:53;100787.53;;;-1.03;89.84
74327;BME280;62745;51.060;13.786;2023-04-06T04:56:18;100787.13;;;-1.09;90.18
74327;BME280;62745;51.060;13.786;2023-04-06T04:58:43;100789.34;;;-0.78;89.21
74327;BME280;62745;51.060;13.786;2023-04-06T05:01:09;100797.63;;;-0.84;89.59
74327;BME280;62745;51.060;13.786;2023-04-06T05:03:36;100798.66;;;-0.74;90.32
74327;BME280;62745;51.060;13.786;2023-04-06T05:06:04;100800.03;;;-0.19;88.40
74327;BME280;62745;51.060;13.786;2023-04-06T05:08:29;100793.41;;;-0.61;88.57
74327;BME280;62745;51.060;13.786;2023-04-06T05:10:54;100798.28;;;-0.31;87.98
74327;BME280;62745;51.060;13.786;2023-04-06T05:13:20;100806.78;;;-0.27;87.26
74327;BME280;62745;51.060;13.786;2023-04-06T05:15:45;100787.25;;;-0.36;87.77
74327;BME280;62745;51.060;13.786;2023-04-06T05:18:11;100813.38;;;-0.35;87.44
74327;BME280;62745;51.060;13.786;2023-04-06T05:20:38;100807.47;;;-0.62;88.65
74327;BME280;62745;51.060;13.786;2023-04-06T05:23:03;100818.91;;;-0.76;89.26
74327;BME280;62745;51.060;13.786;2023-04-06T05:25:29;100826.31;;;-0.32;88.37
74327;BME280;62745;51.060;13.786;2023-04-06T05:27:55;100831.22;;;-0.14;87.42
74327;BME280;62745;51.060;13.786;2023-04-06T05:30:20;100831.69;;;-0.46;86.98
74327;BME280;62745;51.060;13.786;2023-04-06T05:32:46;100828.34;;;-0.73;88.46
74327;BME280;62745;51.060;13.786;2023-04-06T05:35:11;100830.41;;;-0.40;88.05
74327;BME280;62745;51.060;13.786;2023-04-06T05:37:37;100830.88;;;-0.46;87.45
74327;BME280;62745;51.060;13.786;2023-04-06T05:40:03;100836.09;;;-0.46;87.63
74327;BME280;62745;51.060;13.786;2023-04-06T05:42:39;100813.56;;;-0.12;86.70
74327;BME280;62745;51.060;13.786;2023-04-06T05:45:05;100839.94;;;0.10;86.97
74327;BME280;62745;51.060;13.786;2023-04-06T05:47:31;100829.75;;;0.18;87.27
74327;BME280;62745;51.060;13.786;2023-04-06T05:49:56;100830.25;;;0.23;85.91
74327;BME280;62745;51.060;13.786;2023-04-06T05:52:21;100830.97;;;0.25;86.91
74327;BME280;62745;51.060;13.786;2023-04-06T05:54:46;100825.88;;;0.35;86.11
74327;BME280;62745;51.060;13.786;2023-04-06T05:57:12;100825.59;;;0.51;85.61
74327;BME280;62745;51.060;13.786;2023-04-06T05:59:37;100816.69;;;0.41;86.74
74327;BME280;62745;51.060;13.786;2023-04-06T06:02:02;100831.19;;;0.46;86.05
74327;BME280;62745;51.060;13.786;2023-04-06T06:04:27;100827.88;;;0.55;86.57
74327;BME280;62745;51.060;13.786;2023-04-06T06:06:53;100823.56;;;0.54;85.82
74327;BME280;62745;51.060;13.786;2023-04-06T06:09:18;100826.63;;;0.72;85.13
74327;BME280;62745;51.060;13.786;2023-04-06T06:11:43;100826.38;;;0.75;83.49
74327;BME280;62745;51.060;13.786;2023-04-06T06:14:08;100824.03;;;0.95;82.20
74327;BME280;62745;51.060;13.786;2023-04-06T06:16:34;100808.34;;;0.82;82.70
74327;BME280;62745;51.060;13.786;2023-04-06T06:18:59;100818.97;;;0.80;82.87
74327;BME280;62745;51.060;13.786;2023-04-06T06:21:24;100819.06;;;1.03;81.51
74327;BME280;62745;51.060;13.786;2023-04-06T06:23:50;100803.03;;;1.06;81.31
74327;BME280;62745;51.060;13.786;2023-04-06T06:26:16;100814.34;;;0.95;81.01
74327;BME280;62745;51.060;13.786;2023-04-06T06:28:41;100805.28;;;0.99;81.20
74327;BME280;62745;51.060;13.786;2023-04-06T06:31:06;100819.56;;;1.19;80.20
74327;BME280;62745;51.060;13.786;2023-04-06T06:33:32;100821.47;;;1.50;79.57
74327;BME280;62745;51.060;13.786;2023-04-06T06:35:57;100822.69;;;1.35;79.01
74327;BME280;62745;51.060;13.786;2023-04-06T06:38:23;100824.22;;;1.60;79.61
74327;BME280;62745;51.060;13.786;2023-04-06T06:40:48;100812.25;;;1.34;78.91
74327;BME280;62745;51.060;13.786;2023-04-06T06:43:13;100823.72;;;1.33;78.44
74327;BME280;62745;51.060;13.786;2023-04-06T06:45:38;100822.19;;;1.30;77.80
74327;BME280;62745;51.060;13.786;2023-04-06T06:48:04;100821.72;;;1.36;78.02
74327;BME280;62745;51.060;13.786;2023-04-06T06:50:29;100822.44;;;1.38;77.06
74327;BME280;62745;51.060;13.786;2023-04-06T06:52:54;100825.19;;;1.48;77.50
74327;BME280;62745;51.060;13.786;2023-04-06T06:55:22;100828.06;;;1.56;76.62
74327;BME280;62745;51.060;13.786;2023-04-06T06:57:47;100825.06;;;1.72;77.25
74327;BME280;62745;51.060;13.786;2023-04-06T07:00:13;100810.44;;;1.68;77.13
74327;BME280;62745;51.060;13.786;2023-04-06T07:02:39;100824.91;;;1.85;76.08
74327;BME280;62745;51.060;13.786;2023-04-06T07:05:05;100810.06;;;1.84;76.38
74327;BME280;62745;51.060;13.786;2023-04-06T07:07:34;100817.69;;;1.98;76.26
74327;BME280;62745;51.060;13.786;2023-04-06T07:10:00;100821.63;;;2.15;75.02
74327;BME280;62745;51.060;13.786;2023-04-06T07:12:26;100824.28;;;2.67;78.84
74327;BME280;62745;51.060;13.786;2023-04-06T07:14:51;100822.66;;;2.87;77.96
74327;BME280;62745;51.060;13.786;2023-04-06T07:17:16;100822.41;;;2.90;75.08
74327;BME280;62745;51.060;13.786;2023-04-06T07:19:41;100814.66;;;3.19;75.86
74327;BME280;62745;51.060;13.786;2023-04-06T07:22:07;100825.06;;;3.42;75.67
74327;BME280;62745;51.060;13.786;2023-04-06T07:24:32;100819.97;;;3.59;74.56
74327;BME280;62745;51.060;13.786;2023-04-06T07:26:59;100819.22;;;3.78;75.32
74327;BME280;62745;51.060;13.786;2023-04-06T07:29:25;100825.22;;;3.90;73.61
74327;BME280;62745;51.060;13.786;2023-04-06T07:31:51;100822.63;;;4.09;71.00
74327;BME280;62745;51.060;13.786;2023-04-06T07:34:16;100819.16;;;4.18;71.00
74327;BME280;62745;51.060;13.786;2023-04-06T07:36:41;100811.94;;;4.49;72.73
74327;BME280;62745;51.060;13.786;2023-04-06T07:39:07;100814.59;;;4.69;72.72
74327;BME280;62745;51.060;13.786;2023-04-06T07:41:32;100806.34;;;4.91;67.76
74327;BME280;62745;51.060;13.786;2023-04-06T07:43:57;100779.59;;;4.84;65.78
74327;BME280;62745;51.060;13.786;2023-04-06T07:46:22;100810.78;;;5.00;66.07
74327;BME280;62745;51.060;13.786;2023-04-06T07:48:48;100806.16;;;5.12;65.06
74327;BME280;62745;51.060;13.786;2023-04-06T07:51:14;100813.53;;;5.18;64.43
74327;BME280;62745;51.060;13.786;2023-04-06T07:53:41;100797.97;;;5.05;63.94
74327;BME280;62745;51.060;13.786;2023-04-06T07:56:06;100807.63;;;4.77;64.59
74327;BME280;62745;51.060;13.786;2023-04-06T07:58:32;100787.38;;;5.05;64.21
74327;BME280;62745;51.060;13.786;2023-04-06T08:00:57;100811.78;;;5.36;63.01
74327;BME280;62745;51.060;13.786;2023-04-06T08:03:23;100810.03;;;5.18;62.58
74327;BME280;62745;51.060;13.786;2023-04-06T08:05:51;100809.78;;;5.21;61.63
74327;BME280;62745;51.060;13.786;2023-04-06T08:08:16;100810.56;;;5.40;61.13
74327;BME280;62745;51.060;13.786;2023-04-06T08:10:41;100801.72;;;5.50;60.57
74327;BME280;62745;51.060;13.786;2023-04-06T08:13:06;100808.09;;;5.84;60.53
74327;BME280;62745;51.060;13.786;2023-04-06T08:15:33;100813.09;;;5.97;57.20
74327;BME280;62745;51.060;13.786;2023-04-06T08:17:58;100815.72;;;6.24;61.46
74327;BME280;62745;51.060;13.786;2023-04-06T08:20:23;100813.97;;;6.33;56.71
74327;BME280;62745;51.060;13.786;2023-04-06T08:22:49;100815.78;;;6.32;55.53
74327;BME280;62745;51.060;13.786;2023-04-06T08:25:14;100813.28;;;6.49;54.85
74327;BME280;62745;51.060;13.786;2023-04-06T08:27:39;100803.59;;;7.01;55.43
74327;BME280;62745;51.060;13.786;2023-04-06T08:30:05;100800.16;;;7.35;54.60
74327;BME280;62745;51.060;13.786;2023-04-06T08:32:30;100799.31;;;7.60;52.08
74327;BME280;62745;51.060;13.786;2023-04-06T08:34:56;100791.91;;;7.46;49.36
74327;BME280;62745;51.060;13.786;2023-04-06T08:37:21;100796.13;;;7.57;50.35
74327;BME280;62745;51.060;13.786;2023-04-06T08:39:47;100800.00;;;7.36;49.85
74327;BME280;62745;51.060;13.786;2023-04-06T08:42:18;100794.84;;;7.69;50.29
74327;BME280;62745;51.060;13.786;2023-04-06T08:44:44;100796.56;;;7.44;49.46
74327;BME280;62745;51.060;13.786;2023-04-06T08:47:11;100794.38;;;7.39;49.19
74327;BME280;62745;51.060;13.786;2023-04-06T08:49:37;100779.59;;;7.79;48.94
74327;BME280;62745;51.060;13.786;2023-04-06T08:52:06;100788.00;;;8.17;49.33
74327;BME280;62745;51.060;13.786;2023-04-06T08:54:31;100790.06;;;8.39;49.70
74327;BME280;62745;51.060;13.786;2023-04-06T08:56:57;100786.59;;;8.55;49.21
74327;BME280;62745;51.060;13.786;2023-04-06T08:59:23;100788.25;;;8.88;48.71
74327;BME280;62745;51.060;13.786;2023-04-06T09:01:51;100781.84;;;9.30;43.81
74327;BME280;62745;51.060;13.786;2023-04-06T09:04:16;100792.47;;;9.38;40.82
74327;BME280;62745;51.060;13.786;2023-04-06T09:06:42;100788.50;;;9.42;41.21
74327;BME280;62745;51.060;13.786;2023-04-06T09:09:08;100780.50;;;9.42;43.25
74327;BME280;62745;51.060;13.786;2023-04-06T09:11:46;100776.69;;;9.28;44.07
74327;BME280;62745;51.060;13.786;2023-04-06T09:14:12;100791.06;;;9.67;42.05
74327;BME280;62745;51.060;13.786;2023-04-06T09:16:43;100787.19;;;9.77;41.86
74327;BME280;62745;51.060;13.786;2023-04-06T09:19:09;100788.41;;;9.98;39.23
74327;BME280;62745;51.060;13.786;2023-04-06T09:21:34;100782.47;;;9.87;38.48
74327;BME280;62745;51.060;13.786;2023-04-06T09:24:01;100776.00;;;9.34;39.68
74327;BME280;62745;51.060;13.786;2023-04-06T09:26:26;100769.63;;;9.91;39.43
74327;BME280;62745;51.060;13.786;2023-04-06T09:28:57;100770.44;;;9.91;39.14
74327;BME280;62745;51.060;13.786;2023-04-06T09:31:24;100766.19;;;10.36;38.14
74327;BME280;62745;51.060;13.786;2023-04-06T09:33:49;100770.03;;;10.34;38.65
74327;BME280;62745;51.060;13.786;2023-04-06T09:36:15;100757.75;;;10.85;35.61
74327;BME280;62745;51.060;13.786;2023-04-06T09:38:55;100762.50;;;10.98;36.36
74327;BME280;62745;51.060;13.786;2023-04-06T09:41:25;100754.56;;;11.04;34.29
74327;BME280;62745;51.060;13.786;2023-04-06T09:44:04;100760.84;;;10.59;34.75
74327;BME280;62745;51.060;13.786;2023-04-06T09:46:32;100752.41;;;10.85;34.74
74327;BME280;62745;51.060;13.786;2023-04-06T09:48:59;100749.84;;;10.92;34.30
74327;BME280;62745;51.060;13.786;2023-04-06T09:51:26;100747.06;;;10.85;34.96
74327;BME280;62745;51.060;13.786;2023-04-06T09:53:53;100755.81;;;10.79;34.64
74327;BME280;62745;51.060;13.786;2023-04-06T09:56:23;100753.84;;;10.04;33.76
74327;BME280;62745;51.060;13.786;2023-04-06T09:58:52;100749.25;;;10.21;35.05
74327;BME280;62745;51.060;13.786;2023-04-06T10:01:21;100746.97;;;10.78;33.28
74327;BME280;62745;51.060;13.786;2023-04-06T10:04:18;100740.72;;;11.01;32.54
74327;BME280;62745;51.060;13.786;2023-04-06T10:06:47;100736.78;;;11.11;33.80
74327;BME280;62745;51.060;13.786;2023-04-06T10:09:17;100726.44;;;11.53;33.04
74327;BME280;62745;51.060;13.786;2023-04-06T10:11:42;100736.25;;;10.64;33.15
74327;BME280;62745;51.060;13.786;2023-04-06T10:14:09;100734.97;;;10.37;33.47
74327;BME280;62745;51.060;13.786;2023-04-06T10:16:34;100741.06;;;10.83;35.08
74327;BME280;62745;51.060;13.786;2023-04-06T10:19:12;100743.59;;;10.16;33.39
74327;BME280;62745;51.060;13.786;2023-04-06T10:21:39;100744.88;;;9.97;33.29
74327;BME280;62745;51.060;13.786;2023-04-06T10:24:08;100729.31;;;10.54;33.86
74327;BME280;62745;51.060;13.786;2023-04-06T10:26:35;100732.72;;;11.01;31.92
74327;BME280;62745;51.060;13.786;2023-04-06T10:29:03;100727.34;;;10.86;33.51
74327;BME280;62745;51.060;13.786;2023-04-06T10:31:28;100709.28;;;10.88;35.05
74327;BME280;62745;51.060;13.786;2023-04-06T10:33:55;100730.50;;;11.04;32.40
74327;BME280;62745;51.060;13.786;2023-04-06T10:36:23;100734.47;;;11.08;34.51
74327;BME280;62745;51.060;13.786;2023-04-06T10:38:55;100724.69;;;11.45;31.72
74327;BME280;62745;51.060;13.786;2023-04-06T10:41:22;100726.69;;;11.58;31.60
74327;BME280;62745;51.060;13.786;2023-04-06T10:43:55;100730.31;;;11.35;34.50
74327;BME280;62745;51.060;13.786;2023-04-06T10:46:28;100716.94;;;11.50;37.24
74327;BME280;62745;51.060;13.786;2023-04-06T10:48:54;100725.53;;;11.45;36.08
74327;BME280;62745;51.060;13.786;2023-04-06T10:51:24;100708.72;;;11.37;34.73
74327;BME280;62745;51.060;13.786;2023-04-06T10:53:53;100722.97;;;11.88;35.06
74327;BME280;62745;51.060;13.786;2023-04-06T10:56:22;100719.88;;;12.49;33.54
74327;BME280;62745;51.060;13.786;2023-04-06T10:58:52;100720.72;;;12.77;32.69
74327;BME280;62745;51.060;13.786;2023-04-06T11:01:20;100721.00;;;13.17;30.17
74327;BME280;62745;51.060;13.786;2023-04-06T11:03:47;100713.75;;;13.45;32.61
74327;BME280;62745;51.060;13.786;2023-04-06T11:06:20;100701.59;;;12.87;32.67
74327;BME280;62745;51.060;13.786;2023-04-06T11:08:46;100707.50;;;12.48;33.57
74327;BME280;62745;51.060;13.786;2023-04-06T11:11:14;100705.59;;;12.20;31.34
74327;BME280;62745;51.060;13.786;2023-04-06T11:14:03;100704.66;;;12.28;31.37
74327;BME280;62745;51.060;13.786;2023-04-06T11:16:31;100700.28;;;12.76;29.51
74327;BME280;62745;51.060;13.786;2023-04-06T11:18:58;100692.63;;;13.01;30.62
74327;BME280;62745;51.060;13.786;2023-04-06T11:21:40;100699.44;;;13.93;29.10
74327;BME280;62745;51.060;13.786;2023-04-06T11:24:12;100693.38;;;13.71;27.13
74327;BME280;62745;51.060;13.786;2023-04-06T11:26:41;100696.63;;;13.60;27.16
74327;BME280;62745;51.060;13.786;2023-04-06T11:29:08;100682.88;;;13.76;27.87
74327;BME280;62745;51.060;13.786;2023-04-06T11:31:46;100690.41;;;14.33;26.85
74327;BME280;62745;51.060;13.786;2023-04-06T11:34:12;100694.72;;;13.95;26.40
74327;BME280;62745;51.060;13.786;2023-04-06T11:36:41;100688.38;;;13.13;26.28
74327;BME280;62745;51.060;13.786;2023-04-06T11:39:08;100678.78;;;12.70;27.52
74327;BME280;62745;51.060;13.786;2023-04-06T11:41:33;100677.63;;;13.48;28.14
74327;BME280;62745;51.060;13.786;2023-04-06T11:44:01;100677.41;;;14.30;26.21
74327;BME280;62745;51.060;13.786;2023-04-06T11:46:26;100671.94;;;15.10;25.86
74327;BME280;62745;51.060;13.786;2023-04-06T11:48:51;100676.13;;;14.26;26.70
74327;BME280;62745;51.060;13.786;2023-04-06T11:51:22;100681.34;;;14.28;26.37
74327;BME280;62745;51.060;13.786;2023-04-06T11:53:55;100673.66;;;14.25;24.99
74327;BME280;62745;51.060;13.786;2023-04-06T11:56:29;100666.59;;;14.10;25.21
74327;BME280;62745;51.060;13.786;2023-04-06T11:58:56;100673.25;;;14.61;24.81
74327;BME280;62745;51.060;13.786;2023-04-06T12:01:22;100672.00;;;14.37;25.56
74327;BME280;62745;51.060;13.786;2023-04-06T12:03:47;100665.19;;;14.81;26.64
74327;BME280;62745;51.060;13.786;2023-04-06T12:06:13;100670.31;;;15.02;27.58
74327;BME280;62745;51.060;13.786;2023-04-06T12:08:38;100659.16;;;16.94;25.00
74327;BME280;62745;51.060;13.786;2023-04-06T12:11:03;100662.63;;;16.83;24.93
74327;BME280;62745;51.060;13.786;2023-04-06T12:13:29;100661.13;;;16.87;24.48
74327;BME280;62745;51.060;13.786;2023-04-06T12:15:54;100655.47;;;16.70;23.08
74327;BME280;62745;51.060;13.786;2023-04-06T12:18:19;100656.91;;;16.91;24.67
74327;BME280;62745;51.060;13.786;2023-04-06T12:20:45;100658.25;;;18.15;23.66
74327;BME280;62745;51.060;13.786;2023-04-06T12:23:10;100654.84;;;17.78;22.09
74327;BME280;62745;51.060;13.786;2023-04-06T12:25:35;100646.19;;;16.60;22.47
74327;BME280;62745;51.060;13.786;2023-04-06T12:28:01;100644.97;;;17.72;21.39
74327;BME280;62745;51.060;13.786;2023-04-06T12:30:26;100639.72;;;16.17;23.82
74327;BME280;62745;51.060;13.786;2023-04-06T12:32:51;100641.88;;;16.34;23.95
74327;BME280;62745;51.060;13.786;2023-04-06T12:35:16;100636.47;;;16.09;23.86
74327;BME280;62745;51.060;13.786;2023-04-06T12:37:42;100635.06;;;16.31;23.91
74327;BME280;62745;51.060;13.786;2023-04-06T12:40:07;100641.38;;;14.78;24.06